Portada
METAR-TAF:

METAR-TAF

Aeroports :

Weno, Micronèsia

latitud: 07-28N, longitud: 151-51E, altitud: 3 m

Observació

L'informe es va fer fa 45 minuts, a les 01:50 UTC
Vent 7 kt del Oest
Temperatura 30°C
Humitat 84%
Pressió 1011 hPa
Visibilitat: 24.1 km
Escasses núvols a una alçada de 1400 ft
Núvols disperses a una alçada de 12000 ft
Cel cobert a una alçada de 28000 ft

METAR: PTKK 230150Z 27007KT 15SM FEW014 SCT120 OVC280 30/27 A2984 RMK SLP108 T03010265

Hora: 12:35 (02:35 UTC)

Pronòstic

L'informe es va fer fa 3 hores i 0 minuts, a les 23:35 UTC
Pronòstic vàlid del 23 a les 00 UTC al 23 a les 24 UTC
Vent 6 kt del Oest
Visibilitat: 10 km
Núvols disperses a una alçada de 1600 ft
Núvols disperses a una alçada de 4000 ft
Cel ennuvolat a una alçada de 13000 ft
xàfecs en les proximitats

TAF: PTKK 222335Z 2300/2324 26006KT P6SM VCSH SCT016 SCT040 BKN130

Observacions i pronòstics meteorològics de més de 4000 aeroports (METAR i TAF).

Les estacions disponibles són els punts grocs i vermells al mapa.

Posi el ratolí al punt desitjat per veure el nom de l'estació.

Feu clic per veure les observacions i els pronòstics meteorològics.

Per canviar el mapa: feu clic els botons verds amb una creu de color negre per apropar; al botó verd amb un guió per allunyar la imatge; o en les fletxes verdes per a mapes adjacents.


METAR-TAF: